Time;durP1;ratioP1;P1;durP2;ratioP2;P2;SDS_P1;SDS_P2;PMS_P1;PMS_P2;Temp;Humidity;BMP_temperature;BMP_pressure;BME280_temperature;BME280_humidity;BME280_pressure;Samples;Min_cycle;Max_cycle;Signal;HPM_P1;HPM_P2
2022/11/24 00:02:07;;;;;;;13.13;7.30;;;7.80;99.90;;;;;;5139923;27;20486;-67
2022/11/24 00:04:33;;;;;;;13.45;6.90;;;7.70;99.90;;;;;;5122273;27;20050;-67
2022/11/24 00:06:58;;;;;;;10.55;6.53;;;7.50;99.90;;;;;;5139239;27;20054;-67
2022/11/24 00:09:24;;;;;;;10.63;6.13;;;7.80;99.90;;;;;;5158416;27;20130;-67
2022/11/24 00:11:50;;;;;;;10.38;6.03;;;7.90;99.90;;;;;;5158078;27;20043;-67
2022/11/24 00:14:15;;;;;;;11.75;6.50;;;7.70;99.90;;;;;;5139580;27;20043;-67
2022/11/24 00:16:41;;;;;;;13.70;6.80;;;7.40;99.90;;;;;;5158061;27;20478;-67
2022/11/24 00:19:09;;;;;;;12.60;5.70;;;7.60;99.90;;;;;;5105600;27;20100;-67
2022/11/24 00:21:35;;;;;;;10.50;6.43;;;7.70;99.90;;;;;;5139649;27;20057;-67
2022/11/24 00:24:01;;;;;;;10.07;5.90;;;7.50;99.90;;;;;;5157786;27;20542;-67
2022/11/24 00:26:33;;;;;;;13.57;6.30;;;7.90;99.90;;;;;;5121878;27;20466;-67
2022/11/24 00:29:01;;;;;;;10.35;5.93;;;7.40;99.90;;;;;;5157834;27;20121;-67
2022/11/24 00:31:30;;;;;;;10.73;5.93;;;7.30;99.90;;;;;;5139491;27;20204;-67
2022/11/24 00:33:58;;;;;;;10.98;6.47;;;7.50;99.90;;;;;;5139521;27;20047;-68
2022/11/24 00:36:28;;;;;;;14.20;6.90;;;8.20;99.90;;;;;;5157075;27;20117;-67
2022/11/24 00:38:58;;;;;;;13.30;6.10;;;7.80;99.90;;;;;;5157570;27;20110;-67
2022/11/24 00:41:25;;;;;;;12.38;6.32;;;7.50;99.90;;;;;;5139388;27;20106;-67
2022/11/24 00:43:52;;;;;;;13.75;6.20;;;7.50;99.90;;;;;;5138915;27;20046;-67
2022/11/24 00:46:18;;;;;;;10.05;6.30;;;7.80;99.90;;;;;;5138861;27;20483;-67
2022/11/24 00:48:44;;;;;;;9.80;5.65;;;7.80;99.90;;;;;;5157377;27;20129;-67
2022/11/24 00:51:13;;;;;;;11.80;6.03;;;8.10;99.90;;;;;;5157408;27;20486;-67
2022/11/24 00:53:39;;;;;;;8.15;5.93;;;8.00;99.90;;;;;;5138709;27;20243;-67
2022/11/24 00:56:05;;;;;;;11.43;5.35;;;7.40;99.90;;;;;;5157389;27;20505;-67
2022/11/24 00:58:32;;;;;;;11.65;5.38;;;7.40;99.90;;;;;;5157218;27;20043;-67
2022/11/24 01:01:03;;;;;;;12.20;6.00;;;7.50;99.90;;;;;;5156160;27;20168;-67
2022/11/24 01:03:29;;;;;;;11.07;5.82;;;7.90;99.90;;;;;;5138895;27;20428;-67
2022/11/24 01:05:55;;;;;;;15.23;5.35;;;7.60;99.90;;;;;;5156547;27;20139;-67
2022/11/24 01:08:20;;;;;;;11.50;4.93;;;7.70;99.90;;;;;;5104731;27;20078;-67
2022/11/24 01:10:46;;;;;;;13.25;5.65;;;7.60;99.90;;;;;;5138880;27;20131;-67
2022/11/24 01:13:12;;;;;;;13.32;5.55;;;7.70;99.90;;;;;;5121449;27;20051;-67
2022/11/24 01:15:38;;;;;;;11.18;4.63;;;7.40;99.90;;;;;;5156450;27;20034;-67
2022/11/24 01:18:05;;;;;;;10.50;4.90;;;7.30;99.90;;;;;;5138531;27;20058;-67
2022/11/24 01:20:31;;;;;;;11.77;5.57;;;7.30;99.90;;;;;;5121758;27;20042;-67
2022/11/24 01:22:57;;;;;;;11.50;5.15;;;7.90;99.90;;;;;;5156667;27;20058;-67
2022/11/24 01:25:23;;;;;;;9.30;4.47;;;7.20;99.90;;;;;;5156564;27;20075;-67
2022/11/24 01:27:48;;;;;;;13.55;4.80;;;7.60;99.90;;;;;;5156627;27;20039;-67
2022/11/24 01:30:14;;;;;;;11.05;4.15;;;7.80;99.90;;;;;;5138066;27;20103;-67
2022/11/24 01:32:40;;;;;;;14.00;5.13;;;7.40;99.90;;;;;;5157259;27;20038;-67
2022/11/24 01:35:06;;;;;;;12.40;4.00;;;7.80;99.90;;;;;;5120429;27;20043;-67
2022/11/24 01:37:32;;;;;;;9.15;4.25;;;7.10;99.90;;;;;;5156382;27;20047;-67
2022/11/24 01:39:57;;;;;;;9.93;4.50;;;7.30;99.90;;;;;;5138116;27;20387;-67
2022/11/24 01:42:23;;;;;;;10.02;4.15;;;7.50;99.90;;;;;;5156250;27;20082;-67
2022/11/24 01:45:26;;;;;;;12.65;4.15;;;7.10;99.90;;;;;;5137922;27;20038;-67
2022/11/24 01:47:52;;;;;;;11.40;3.08;;;7.30;99.90;;;;;;5156149;27;20053;-67
2022/11/24 01:50:18;;;;;;;9.63;3.45;;;7.60;99.90;;;;;;5137941;27;20125;-67
2022/11/24 01:52:48;;;;;;;11.90;4.15;;;7.20;99.90;;;;;;5137501;27;20042;-67
2022/11/24 01:55:19;;;;;;;12.63;4.38;;;8.00;99.90;;;;;;5156083;27;20047;-67
2022/11/24 01:57:56;;;;;;;13.05;3.50;;;7.60;99.90;;;;;;5137921;27;20047;-67
2022/11/24 02:00:22;;;;;;;10.98;3.90;;;7.50;99.90;;;;;;5138040;27;20051;-67
2022/11/24 02:02:48;;;;;;;13.88;3.60;;;7.30;99.90;;;;;;5120594;27;20133;-67
2022/11/24 02:05:21;;;;;;;13.15;3.53;;;7.60;99.90;;;;;;5136764;27;20159;-67
2022/11/24 02:07:47;;;;;;;;;;;7.40;99.90;;;;;;5156868;27;20395;-67
2022/11/24 02:10:14;;;;;;;15.88;4.05;;;7.30;99.90;;;;;;5137584;27;19930;-67
2022/11/24 02:12:43;;;;;;;9.98;3.40;;;7.40;99.90;;;;;;5137258;27;20503;-67
2022/11/24 02:15:10;;;;;;;9.50;3.28;;;7.90;99.90;;;;;;5155730;27;20034;-67
2022/11/24 02:17:36;;;;;;;11.00;3.25;;;7.90;99.90;;;;;;5155691;27;20170;-67
2022/11/24 02:20:08;;;;;;;12.45;3.60;;;7.70;99.90;;;;;;5137482;27;20046;-67
2022/11/24 02:22:57;;;;;;;10.82;3.50;;;7.10;99.90;;;;;;5136982;27;20088;-67
2022/11/24 02:25:47;;;;;;;8.63;2.63;;;7.20;99.90;;;;;;5137113;27;20052;-67
2022/11/24 02:28:17;;;;;;;14.70;3.35;;;7.20;99.90;;;;;;5137447;27;20130;-67
2022/11/24 02:30:43;;;;;;;9.98;3.45;;;7.20;99.90;;;;;;5137976;27;20049;-67
2022/11/24 02:33:10;;;;;;;13.13;3.53;;;7.10;99.90;;;;;;5155444;27;20125;-67
2022/11/24 02:35:36;;;;;;;14.27;3.67;;;7.20;99.90;;;;;;5136678;27;20079;-67
2022/11/24 02:38:02;;;;;;;14.57;2.83;;;7.30;99.90;;;;;;5155436;27;20439;-67
2022/11/24 02:40:29;;;;;;;7.97;2.47;;;7.00;99.90;;;;;;5120460;27;20391;-67
2022/11/24 02:43:00;;;;;;;11.15;3.15;;;7.40;99.90;;;;;;5119924;27;20047;-67
2022/11/24 02:45:26;;;;;;;14.65;3.17;;;7.40;99.90;;;;;;5155298;27;20042;-67
2022/11/24 02:47:52;;;;;;;10.27;2.70;;;7.20;99.90;;;;;;5137131;27;20047;-67
2022/11/24 02:50:17;;;;;;;13.98;3.25;;;7.10;99.90;;;;;;5119641;27;20080;-67
2022/11/24 02:52:43;;;;;;;11.15;2.55;;;7.90;99.90;;;;;;5154989;27;20046;-67
2022/11/24 02:55:09;;;;;;;8.15;2.50;;;7.10;99.90;;;;;;5155424;27;20046;-67
2022/11/24 02:57:35;;;;;;;11.90;3.10;;;7.60;99.90;;;;;;5137079;27;20076;-67
2022/11/24 03:00:00;;;;;;;10.75;2.75;;;8.00;99.90;;;;;;5155473;27;20046;-67
2022/11/24 03:02:26;;;;;;;8.57;2.75;;;7.20;99.90;;;;;;5136951;27;20372;-67
2022/11/24 03:04:52;;;;;;;7.32;2.60;;;7.70;99.90;;;;;;5155182;27;20046;-67
2022/11/24 03:07:18;;;;;;;10.57;2.65;;;7.50;99.90;;;;;;5136211;27;20043;-67
2022/11/24 03:09:43;;;;;;;9.07;2.58;;;7.30;99.90;;;;;;5155490;27;20055;-67
2022/11/24 03:12:09;;;;;;;15.45;2.50;;;7.30;99.90;;;;;;5155054;27;20086;-67
2022/11/24 03:14:35;;;;;;;10.57;2.88;;;7.80;99.90;;;;;;5155019;27;20039;-67
2022/11/24 03:17:00;;;;;;;11.55;3.00;;;7.20;99.90;;;;;;5119896;27;20049;-67
2022/11/24 03:19:26;;;;;;;9.95;2.60;;;8.00;99.90;;;;;;5155323;27;20130;-67
2022/11/24 03:21:51;;;;;;;12.43;2.60;;;7.10;99.90;;;;;;5136999;27;20050;-67
2022/11/24 03:24:17;;;;;;;10.52;2.83;;;7.30;99.90;;;;;;5155858;27;20035;-67
2022/11/24 03:26:43;;;;;;;9.43;2.33;;;7.00;99.90;;;;;;5123408;27;20087;-67
2022/11/24 03:29:08;;;;;;;12.45;2.95;;;7.30;99.90;;;;;;5159193;27;20039;-67
2022/11/24 03:31:34;;;;;;;9.77;2.75;;;6.90;99.90;;;;;;5158939;27;20439;-67
2022/11/24 03:34:00;;;;;;;11.75;2.63;;;7.20;99.90;;;;;;5140625;27;20376;-67
2022/11/24 03:36:26;;;;;;;13.50;2.75;;;7.90;99.90;;;;;;5139976;27;20478;-67
2022/11/24 03:38:51;;;;;;;9.93;2.47;;;7.30;99.90;;;;;;5140574;27;20469;-67
2022/11/24 03:41:17;;;;;;;10.25;2.53;;;7.10;99.90;;;;;;5123389;27;20054;-67
2022/11/24 03:43:43;;;;;;;8.77;2.20;;;8.20;99.90;;;;;;5140461;27;20107;-67
2022/11/24 03:46:10;;;;;;;9.02;2.38;;;7.20;99.90;;;;;;5139916;27;20481;-67
2022/11/24 03:48:36;;;;;;;14.43;2.47;;;7.70;99.90;;;;;;5122906;27;20054;-67
2022/11/24 03:51:02;;;;;;;8.32;1.95;;;7.10;99.90;;;;;;5140195;27;20043;-67
2022/11/24 03:53:30;;;;;;;11.07;2.83;;;7.20;99.90;;;;;;5136347;27;20047;-67
2022/11/24 03:55:56;;;;;;;13.55;2.67;;;7.80;99.90;;;;;;5136742;27;20107;-67
2022/11/24 03:58:22;;;;;;;8.85;2.90;;;7.30;99.90;;;;;;5136422;27;20058;-67
2022/11/24 04:00:50;;;;;;;11.98;2.30;;;7.30;99.90;;;;;;5136627;27;20483;-67
2022/11/24 04:03:16;;;;;;;11.10;2.08;;;7.80;99.90;;;;;;5137659;27;20130;-67
2022/11/24 04:05:42;;;;;;;7.43;1.75;;;7.50;99.90;;;;;;5135760;27;20139;-67
2022/11/24 04:08:08;;;;;;;9.07;1.95;;;7.50;99.90;;;;;;5137831;27;20047;-67
2022/11/24 04:10:35;;;;;;;9.52;2.22;;;7.90;99.90;;;;;;5137432;27;20078;-67
2022/11/24 04:13:10;;;;;;;10.55;2.28;;;7.50;99.90;;;;;;5137347;27;20043;-67
2022/11/24 04:15:39;;;;;;;9.30;1.88;;;7.90;99.90;;;;;;5137379;27;20498;-67
2022/11/24 04:18:04;;;;;;;12.57;2.65;;;7.70;99.90;;;;;;5136015;27;20055;-67
2022/11/24 04:20:30;;;;;;;13.82;2.60;;;7.70;99.90;;;;;;5137414;27;20066;-67
2022/11/24 04:22:56;;;;;;;6.90;1.90;;;7.50;99.90;;;;;;5118776;27;20039;-67
2022/11/24 04:25:22;;;;;;;10.50;2.08;;;7.70;99.90;;;;;;5137887;27;20054;-67
2022/11/24 04:27:52;;;;;;;9.73;2.25;;;7.20;99.90;;;;;;5136134;27;20091;-67
2022/11/24 04:30:18;;;;;;;10.65;2.25;;;7.70;99.90;;;;;;5135928;27;20475;-67
2022/11/24 04:32:44;;;;;;;7.53;1.83;;;7.40;99.90;;;;;;5136048;27;20046;-67
2022/11/24 04:35:10;;;;;;;11.73;2.10;;;7.80;99.90;;;;;;5135142;27;20043;-69
2022/11/24 04:37:36;;;;;;;7.93;1.88;;;7.60;99.90;;;;;;5136111;27;20559;-67
2022/11/24 04:40:04;;;;;;;12.02;2.00;;;7.40;99.90;;;;;;5136875;27;20051;-67
2022/11/24 04:42:29;;;;;;;8.75;1.95;;;7.30;99.90;;;;;;5136004;27;20130;-67
2022/11/24 04:44:55;;;;;;;10.27;1.63;;;7.90;99.90;;;;;;5101626;27;20471;-67
2022/11/24 04:47:23;;;;;;;5.90;1.90;;;8.10;99.90;;;;;;5135734;27;20051;-67
2022/11/24 04:49:50;;;;;;;8.80;1.73;;;7.20;99.90;;;;;;5136636;27;20051;-67
2022/11/24 04:52:18;;;;;;;7.93;1.95;;;7.50;99.90;;;;;;5135637;27;20387;-67
2022/11/24 04:54:44;;;;;;;15.30;2.20;;;7.30;99.90;;;;;;5134870;27;20078;-67
2022/11/24 04:57:19;;;;;;;8.15;1.83;;;7.10;99.90;;;;;;5136574;27;20058;-67
2022/11/24 04:59:45;;;;;;;9.27;2.00;;;7.10;99.90;;;;;;5136394;27;20050;-67
2022/11/24 05:02:11;;;;;;;8.25;1.70;;;7.30;99.90;;;;;;5118239;27;20047;-67
2022/11/24 05:04:37;;;;;;;9.48;1.65;;;7.40;99.90;;;;;;5136334;27;20124;-67
2022/11/24 05:07:03;;;;;;;5.90;1.48;;;7.30;99.90;;;;;;5117831;27;20078;-67
2022/11/24 05:09:29;;;;;;;6.97;1.65;;;7.20;99.90;;;;;;5136002;27;20526;-67
2022/11/24 05:11:55;;;;;;;13.13;2.42;;;7.50;99.90;;;;;;5136213;27;20172;-67
2022/11/24 05:14:20;;;;;;;11.98;2.38;;;7.10;99.90;;;;;;5135412;27;20493;-67
2022/11/24 05:16:46;;;;;;;7.25;1.50;;;6.90;99.90;;;;;;5136199;27;20467;-67
2022/11/24 05:19:12;;;;;;;7.22;1.65;;;7.30;99.90;;;;;;5136113;27;20050;-67
2022/11/24 05:21:38;;;;;;;5.88;1.50;;;6.80;99.90;;;;;;5135159;27;20043;-67
2022/11/24 05:24:04;;;;;;;7.40;1.83;;;6.90;99.90;;;;;;5135944;27;20039;-67
2022/11/24 05:26:29;;;;;;;10.10;1.60;;;6.90;99.90;;;;;;5134676;27;20039;-67
2022/11/24 05:28:55;;;;;;;8.75;1.75;;;6.90;99.90;;;;;;5135922;27;20112;-67
2022/11/24 05:31:21;;;;;;;10.20;1.83;;;7.30;99.90;;;;;;5135838;27;20049;-67
2022/11/24 05:33:47;;;;;;;7.20;1.67;;;6.80;99.90;;;;;;5118540;27;20140;-68
2022/11/24 05:36:51;;;;;;;6.82;1.52;;;6.90;99.90;;;;;;5133956;27;20047;-67
2022/11/24 05:38:59;;;;;;;6.60;1.60;;;7.40;99.90;;;;;;5120028;27;20085;-67
2022/11/24 05:41:24;;;;;;;7.97;1.92;;;7.10;99.90;;;;;;5134898;27;20510;-67
2022/11/24 05:43:50;;;;;;;6.93;1.90;;;7.00;99.90;;;;;;5135666;27;20083;-67
2022/11/24 05:46:16;;;;;;;9.77;1.67;;;7.00;99.90;;;;;;5135491;27;20047;-67
2022/11/24 05:48:42;;;;;;;7.07;1.70;;;6.80;99.90;;;;;;5116656;27;20494;-67
2022/11/24 05:51:08;;;;;;;10.13;1.80;;;7.00;99.90;;;;;;5134534;27;20043;-67
2022/11/24 05:53:33;;;;;;;8.93;1.77;;;7.30;99.90;;;;;;5117014;27;20043;-67
2022/11/24 05:56:05;;;;;;;13.00;1.60;;;6.80;99.90;;;;;;5134212;27;20181;-67
2022/11/24 05:58:31;;;;;;;12.52;1.75;;;6.60;99.90;;;;;;5135605;27;20458;-67
2022/11/24 06:00:56;;;;;;;7.82;1.52;;;6.80;99.90;;;;;;5135327;27;20082;-67
2022/11/24 06:03:22;;;;;;;9.35;2.03;;;6.70;99.90;;;;;;5134047;27;20066;-67
2022/11/24 06:05:48;;;;;;;11.05;1.80;;;7.10;99.90;;;;;;5134808;27;20122;-67
2022/11/24 06:08:14;;;;;;;12.18;1.83;;;6.70;99.90;;;;;;5134238;27;20074;-67
2022/11/24 06:10:40;;;;;;;10.27;1.58;;;7.10;99.90;;;;;;5135103;27;20047;-67
2022/11/24 06:13:06;;;;;;;10.52;2.42;;;7.00;99.90;;;;;;5133857;27;20046;-67
2022/11/24 06:15:33;;;;;;;9.75;1.98;;;7.20;99.90;;;;;;5135052;27;20043;-67
2022/11/24 06:17:59;;;;;;;9.60;1.80;;;7.10;99.90;;;;;;5134985;27;20104;-67
2022/11/24 06:20:25;;;;;;;5.78;1.50;;;6.80;99.90;;;;;;5134188;27;20039;-67
2022/11/24 06:22:51;;;;;;;9.07;1.70;;;6.70;99.90;;;;;;5134986;27;20050;-67
2022/11/24 06:25:16;;;;;;;7.13;2.00;;;7.10;99.90;;;;;;5133796;27;20043;-67
2022/11/24 06:27:43;;;;;;;8.45;2.28;;;6.80;99.90;;;;;;5133647;27;20399;-67
2022/11/24 06:30:09;;;;;;;10.25;1.42;;;6.70;99.90;;;;;;5133868;27;20047;-67
2022/11/24 06:32:35;;;;;;;12.52;2.40;;;6.70;99.90;;;;;;5134833;27;20119;-67
2022/11/24 06:35:01;;;;;;;11.93;1.92;;;7.20;99.90;;;;;;5133616;27;20048;-67
2022/11/24 06:37:26;;;;;;;8.38;1.60;;;7.20;99.90;;;;;;5116112;27;20050;-67
2022/11/24 06:39:52;;;;;;;6.45;1.50;;;7.10;99.90;;;;;;5134762;27;20053;-67
2022/11/24 06:42:18;;;;;;;9.32;1.67;;;7.10;99.90;;;;;;5133681;27;20050;-67
2022/11/24 06:44:46;;;;;;;7.97;1.65;;;7.10;99.90;;;;;;5133345;27;20054;-67
2022/11/24 06:47:12;;;;;;;7.32;1.42;;;7.10;99.90;;;;;;5134573;27;20506;-67
2022/11/24 06:49:38;;;;;;;7.90;1.50;;;7.20;99.90;;;;;;5134623;27;20122;-67
2022/11/24 06:52:03;;;;;;;15.63;2.45;;;6.70;99.90;;;;;;5134566;27;20584;-67
2022/11/24 06:54:29;;;;;;;9.00;2.08;;;7.00;99.90;;;;;;5116121;28;20055;-67
2022/11/24 06:56:56;;;;;;;8.70;1.58;;;7.10;99.90;;;;;;5116448;28;20039;-67
2022/11/24 06:59:22;;;;;;;10.68;1.98;;;7.10;99.90;;;;;;5134586;27;20126;-67
2022/11/24 07:01:48;;;;;;;9.70;1.58;;;7.00;99.90;;;;;;5138847;27;20126;-67
2022/11/24 07:04:14;;;;;;;8.15;1.80;;;6.80;99.90;;;;;;5137689;27;20061;-67
2022/11/24 07:06:40;;;;;;;9.20;1.60;;;6.60;99.90;;;;;;5138075;27;20501;-67
2022/11/24 07:09:08;;;;;;;11.57;2.03;;;6.90;99.90;;;;;;5120466;27;20130;-67
2022/11/24 07:11:34;;;;;;;8.55;1.40;;;6.50;99.90;;;;;;5138531;27;20080;-67
2022/11/24 07:13:59;;;;;;;11.82;1.70;;;6.80;99.90;;;;;;5139053;27;20082;-67
2022/11/24 07:16:26;;;;;;;9.77;2.05;;;7.30;99.90;;;;;;5138981;27;20040;-67
2022/11/24 07:18:53;;;;;;;13.80;1.90;;;7.10;99.90;;;;;;5138386;27;20055;-67
2022/11/24 07:21:20;;;;;;;10.85;1.70;;;7.00;99.90;;;;;;5137696;27;20068;-67
2022/11/24 07:23:50;;;;;;;7.60;1.45;;;7.40;99.90;;;;;;5137448;27;20047;-67
2022/11/24 07:26:17;;;;;;;10.68;1.25;;;7.10;99.90;;;;;;5138283;27;20100;-67
2022/11/24 07:28:43;;;;;;;14.02;2.10;;;7.50;99.90;;;;;;5137718;27;20043;-67
2022/11/24 07:31:19;;;;;;;7.10;1.73;;;7.10;99.90;;;;;;5137498;27;20043;-67
2022/11/24 07:33:52;;;;;;;7.35;1.73;;;6.70;99.90;;;;;;5138249;27;20058;-67
2022/11/24 07:36:18;;;;;;;9.13;2.08;;;6.90;99.90;;;;;;5137582;27;20172;-67
2022/11/24 07:38:44;;;;;;;9.70;1.85;;;7.10;99.90;;;;;;5137400;27;20177;-67
2022/11/24 07:41:13;;;;;;;7.82;1.35;;;7.00;99.90;;;;;;5137160;27;20390;-67
2022/11/24 07:43:39;;;;;;;9.27;1.77;;;7.10;99.90;;;;;;5138083;27;20051;-67
2022/11/24 07:46:06;;;;;;;8.27;1.77;;;6.80;99.90;;;;;;5136995;27;20054;-67
2022/11/24 07:48:32;;;;;;;9.40;1.65;;;6.90;99.90;;;;;;5136726;27;20043;-67
2022/11/24 07:50:59;;;;;;;9.93;1.45;;;7.20;99.90;;;;;;5119768;27;20394;-67
2022/11/24 07:53:25;;;;;;;12.43;1.90;;;7.00;99.90;;;;;;5139044;27;20104;-68
2022/11/24 07:55:55;;;;;;;11.45;2.03;;;6.80;99.90;;;;;;5158462;27;20055;-67
2022/11/24 07:58:22;;;;;;;7.43;1.48;;;6.90;99.90;;;;;;5158919;27;20055;-67
2022/11/24 08:00:47;;;;;;;5.85;1.42;;;7.10;99.90;;;;;;5158311;27;20042;-67
2022/11/24 08:03:13;;;;;;;7.20;1.27;;;6.80;99.90;;;;;;5140045;27;20045;-68
2022/11/24 08:05:39;;;;;;;9.52;1.92;;;6.80;99.90;;;;;;5157627;27;20368;-67
2022/11/24 08:08:05;;;;;;;8.88;2.42;;;7.30;99.90;;;;;;5139784;27;20043;-67
2022/11/24 08:10:30;;;;;;;13.00;1.63;;;7.00;99.90;;;;;;5157893;27;20047;-67
2022/11/24 08:13:00;;;;;;;8.52;1.60;;;6.80;99.90;;;;;;5158064;27;20474;-67
2022/11/24 08:15:26;;;;;;;6.47;1.80;;;7.10;99.90;;;;;;5158051;27;20131;-67
2022/11/24 08:17:52;;;;;;;5.82;1.40;;;7.10;99.90;;;;;;5122690;27;20447;-67
2022/11/24 08:20:18;;;;;;;8.13;1.63;;;6.90;99.90;;;;;;5139738;27;20042;-67
2022/11/24 08:22:44;;;;;;;5.25;1.77;;;6.90;99.90;;;;;;5139667;27;20129;-67
2022/11/24 08:25:13;;;;;;;11.52;2.75;;;6.80;99.90;;;;;;5157745;27;20046;-67
2022/11/24 08:27:39;;;;;;;10.18;2.38;;;6.60;99.90;;;;;;5121935;27;20486;-67
2022/11/24 08:30:05;;;;;;;11.82;1.90;;;7.20;99.90;;;;;;5139056;27;20050;-67
2022/11/24 08:32:31;;;;;;;11.38;2.03;;;6.80;99.90;;;;;;5157742;27;20039;-67
2022/11/24 08:34:56;;;;;;;10.95;2.20;;;7.70;99.90;;;;;;5158089;27;20517;-67
2022/11/24 08:37:24;;;;;;;9.90;2.05;;;6.90;99.90;;;;;;5157098;27;20149;-67
2022/11/24 08:39:51;;;;;;;8.27;1.92;;;7.80;99.90;;;;;;5157576;27;20042;-67
2022/11/24 08:42:16;;;;;;;9.38;2.33;;;7.70;99.90;;;;;;5139160;27;20091;-67
2022/11/24 08:44:42;;;;;;;6.43;2.08;;;7.10;99.90;;;;;;5157523;27;20054;-67
2022/11/24 08:47:08;;;;;;;8.27;1.90;;;7.50;99.90;;;;;;5139209;27;20042;-67
2022/11/24 08:49:33;;;;;;;10.48;2.53;;;7.00;99.90;;;;;;5157085;27;20050;-67
2022/11/24 08:51:59;;;;;;;11.88;2.05;;;7.30;99.90;;;;;;5122035;27;20043;-67
2022/11/24 08:54:25;;;;;;;10.45;2.65;;;6.80;99.90;;;;;;5157355;27;20057;-67
2022/11/24 08:56:50;;;;;;;15.88;2.47;;;7.00;99.90;;;;;;5157344;27;20452;-67
2022/11/24 08:59:17;;;;;;;9.90;2.40;;;7.50;99.90;;;;;;5139026;27;20096;-67
2022/11/24 09:01:43;;;;;;;7.65;2.72;;;7.00;99.90;;;;;;5138938;27;20055;-67
2022/11/24 09:04:10;;;;;;;10.27;2.03;;;7.10;99.90;;;;;;5156890;27;20058;-67
2022/11/24 09:06:35;;;;;;;9.10;2.38;;;7.20;99.90;;;;;;5138177;27;20091;-67
2022/11/24 09:09:02;;;;;;;7.97;2.45;;;7.10;99.90;;;;;;5156807;27;20115;-67
2022/11/24 09:11:28;;;;;;;12.35;3.05;;;7.20;99.90;;;;;;5138329;27;20108;-67
2022/11/24 09:13:54;;;;;;;11.73;2.95;;;8.20;99.90;;;;;;5156682;27;20501;-67
2022/11/24 09:16:22;;;;;;;9.77;2.38;;;7.20;99.90;;;;;;5157193;27;20088;-67
2022/11/24 09:19:01;;;;;;;7.50;2.47;;;7.50;99.90;;;;;;5156810;27;20043;-67
2022/11/24 09:21:27;;;;;;;10.02;2.25;;;7.40;99.90;;;;;;5138191;27;20478;-67
2022/11/24 09:23:54;;;;;;;14.38;3.17;;;7.60;99.90;;;;;;5138129;27;20042;-67
2022/11/24 09:26:28;;;;;;;6.15;2.35;;;7.40;99.90;;;;;;5156727;27;20231;-67
2022/11/24 09:28:55;;;;;;;10.13;2.28;;;7.50;99.90;;;;;;5138556;27;20046;-67
2022/11/24 09:31:24;;;;;;;7.75;2.35;;;7.50;99.90;;;;;;5138711;27;20046;-67
2022/11/24 09:33:50;;;;;;;8.77;2.40;;;7.80;99.90;;;;;;5138450;27;20098;-67
2022/11/24 09:36:17;;;;;;;9.65;2.45;;;7.70;99.90;;;;;;5155962;27;20566;-67
2022/11/24 09:38:43;;;;;;;13.10;2.80;;;7.90;99.90;;;;;;5156585;27;20078;-67
2022/11/24 09:41:21;;;;;;;10.48;2.33;;;7.50;99.90;;;;;;5138144;27;20085;-67
2022/11/24 09:44:15;;;;;;;10.85;3.08;;;7.80;99.90;;;;;;5121086;27;20046;-67
2022/11/24 09:47:17;;;;;;;6.00;2.30;;;7.90;99.90;;;;;;5156065;27;20130;-68
2022/11/24 09:49:50;;;;;;;9.30;2.58;;;8.00;99.90;;;;;;5156470;27;20050;-67
2022/11/24 09:52:28;;;;;;;8.32;2.35;;;8.00;99.90;;;;;;5156800;27;20379;-67
2022/11/24 09:54:59;;;;;;;6.15;2.03;;;8.00;99.90;;;;;;5137791;27;20401;-67
2022/11/24 09:57:28;;;;;;;8.55;2.83;;;8.10;99.90;;;;;;5137846;27;20046;-67
2022/11/24 10:00:00;;;;;;;9.23;2.20;;;8.20;99.90;;;;;;5137760;27;20106;-67
2022/11/24 10:02:26;;;;;;;7.60;2.00;;;8.50;99.90;;;;;;5156327;27;20054;-67
2022/11/24 10:04:53;;;;;;;6.85;1.95;;;8.40;99.90;;;;;;5155996;27;20050;-67
2022/11/24 10:07:36;;;;;;;7.22;2.17;;;8.40;99.90;;;;;;5137389;27;20141;-67
2022/11/24 10:10:09;;;;;;;9.25;2.00;;;8.50;99.90;;;;;;5137553;27;20046;-66
2022/11/24 10:12:54;;;;;;;6.23;1.80;;;8.60;99.90;;;;;;5155996;27;20047;-66
2022/11/24 10:15:32;;;;;;;6.15;2.30;;;8.10;99.90;;;;;;5118544;27;20069;-68
2022/11/24 10:18:13;;;;;;;7.68;2.17;;;8.30;99.90;;;;;;5144157;27;20046;-68
2022/11/24 10:21:03;;;;;;;8.98;1.95;;;8.50;99.90;;;;;;5119730;27;20143;-67
2022/11/24 10:23:50;;;;;;;6.60;1.83;;;8.40;99.90;;;;;;5117015;27;20047;-67
2022/11/24 10:26:32;;;;;;;4.22;1.83;;;8.50;99.90;;;;;;5116605;27;20039;-66
2022/11/24 10:28:57;;;;;;;5.60;1.83;;;8.40;99.90;;;;;;5135504;27;20099;-67
2022/11/24 10:31:29;;;;;;;4.78;1.58;;;8.70;99.90;;;;;;5116506;27;20047;-67
2022/11/24 10:33:59;;;;;;;4.45;1.90;;;8.80;99.90;;;;;;5116541;27;20055;-66
2022/11/24 10:36:51;;;;;;;8.90;2.20;;;8.80;99.90;;;;;;5142749;27;20035;-68
2022/11/24 10:39:27;;;;;;;5.95;1.70;;;8.60;99.90;;;;;;5145898;27;20051;-68
2022/11/24 10:42:04;;;;;;;4.93;1.45;;;9.50;99.90;;;;;;5124835;27;20102;-68
2022/11/24 10:44:30;;;;;;;5.25;1.50;;;8.60;99.90;;;;;;5126559;27;20114;-67
2022/11/24 10:46:55;;;;;;;7.22;1.40;;;8.60;99.90;;;;;;5125286;27;20526;-67
2022/11/24 10:49:26;;;;;;;7.30;1.13;;;9.00;99.90;;;;;;5127440;27;20050;-68
2022/11/24 10:52:07;;;;;;;7.75;1.45;;;8.70;99.90;;;;;;5126824;27;20123;-68
2022/11/24 10:54:34;;;;;;;5.13;1.20;;;9.00;99.90;;;;;;5144763;27;20091;-67
2022/11/24 10:57:01;;;;;;;6.25;1.30;;;8.90;99.90;;;;;;5118524;27;20054;-66
2022/11/24 10:59:26;;;;;;;4.03;1.20;;;8.80;99.90;;;;;;5111435;27;20394;-66
2022/11/24 11:01:53;;;;;;;4.93;1.00;;;9.10;99.90;;;;;;5126894;27;20050;-66
2022/11/24 11:04:23;;;;;;;3.20;0.90;;;9.50;99.90;;;;;;5126809;27;20050;-66
2022/11/24 11:06:49;;;;;;;4.32;1.70;;;9.00;99.90;;;;;;5144717;27;20031;-66
2022/11/24 11:09:20;;;;;;;4.30;1.10;;;9.20;99.90;;;;;;5126926;27;20489;-66
2022/11/24 11:11:47;;;;;;;3.88;0.80;;;8.90;99.90;;;;;;5151163;27;20047;-66
2022/11/24 11:14:34;;;;;;;3.78;1.20;;;9.10;99.90;;;;;;5143629;27;20405;-66
2022/11/24 11:17:00;;;;;;;6.00;0.93;;;8.90;99.90;;;;;;5145761;27;20039;-66
2022/11/24 11:19:36;;;;;;;3.42;1.20;;;9.80;99.90;;;;;;5144801;27;20489;-66
2022/11/24 11:22:11;;;;;;;4.15;0.93;;;9.30;99.90;;;;;;5145539;27;20047;-66
2022/11/24 11:24:39;;;;;;;5.32;1.20;;;9.00;99.90;;;;;;5124803;27;20099;-66
2022/11/24 11:27:17;;;;;;;4.90;0.98;;;9.30;99.90;;;;;;5126858;27;20035;-66
2022/11/24 11:29:43;;;;;;;3.65;0.90;;;9.20;99.90;;;;;;5143214;27;20074;-66
2022/11/24 11:32:23;;;;;;;4.43;1.60;;;9.50;99.90;;;;;;5127215;27;20505;-66
2022/11/24 11:34:51;;;;;;;4.18;1.23;;;9.30;99.90;;;;;;5143890;27;20096;-66
2022/11/24 11:37:19;;;;;;;3.83;1.00;;;9.30;99.90;;;;;;5127078;27;20089;-66
2022/11/24 11:39:47;;;;;;;2.85;1.40;;;9.10;99.90;;;;;;5125086;27;20057;-66
2022/11/24 11:42:33;;;;;;;2.33;0.80;;;9.50;99.90;;;;;;5125130;27;20101;-66
2022/11/24 11:45:09;;;;;;;5.15;1.80;;;9.20;99.90;;;;;;5126700;27;20074;-67
2022/11/24 11:47:46;;;;;;;5.38;1.42;;;9.30;99.90;;;;;;5148663;27;20049;-67
2022/11/24 11:50:17;;;;;;;6.57;1.52;;;9.30;99.90;;;;;;5142822;27;20115;-67
2022/11/24 11:52:58;;;;;;;5.47;1.13;;;9.40;99.90;;;;;;5129464;27;20162;-67
2022/11/24 11:55:53;;;;;;;4.15;1.27;;;9.40;99.90;;;;;;5145852;27;20049;-67
2022/11/24 11:58:31;;;;;;;5.93;1.40;;;9.30;99.90;;;;;;5148138;27;20058;-67
2022/11/24 12:01:37;;;;;;;4.72;1.35;;;9.40;99.90;;;;;;5146085;27;20435;-67
2022/11/24 12:04:20;;;;;;;6.43;1.50;;;9.30;99.90;;;;;;5112632;27;20103;-67
2022/11/24 12:07:10;;;;;;;6.03;2.22;;;9.50;99.90;;;;;;5145810;27;20602;-67
2022/11/24 12:09:48;;;;;;;8.75;2.35;;;9.30;99.90;;;;;;5129243;27;20043;-67
2022/11/24 12:12:48;;;;;;;7.10;2.00;;;9.40;99.90;;;;;;5147280;27;20043;-67
2022/11/24 12:15:13;;;;;;;4.97;1.83;;;9.40;99.90;;;;;;5129383;27;20478;-67
2022/11/24 12:18:25;;;;;;;5.97;1.88;;;9.40;99.90;;;;;;5129706;27;20103;-67
2022/11/24 12:21:24;;;;;;;6.63;1.85;;;9.50;99.90;;;;;;5128424;27;20031;-67
2022/11/24 12:24:08;;;;;;;6.60;1.77;;;9.50;99.90;;;;;;5127987;27;20043;-67
2022/11/24 12:26:55;;;;;;;6.03;1.58;;;9.50;99.90;;;;;;5146774;27;20040;-67
2022/11/24 12:29:52;;;;;;;5.13;2.47;;;9.50;99.90;;;;;;5128439;27;20047;-67
2022/11/24 12:32:40;;;;;;;4.57;1.85;;;9.50;99.90;;;;;;5147471;27;20178;-67
2022/11/24 12:35:05;;;;;;;6.43;1.95;;;9.60;99.90;;;;;;5127407;27;20043;-67
2022/11/24 12:37:40;;;;;;;4.20;1.52;;;9.50;99.90;;;;;;5147327;27;20450;-67
2022/11/24 12:40:24;;;;;;;5.90;1.60;;;9.90;99.90;;;;;;5126229;27;20045;-67
2022/11/24 12:43:21;;;;;;;6.63;2.08;;;9.60;99.90;;;;;;5127837;27;20039;-67
2022/11/24 12:46:07;;;;;;;7.15;1.98;;;9.60;99.90;;;;;;5145249;27;20075;-67
2022/11/24 12:48:49;;;;;;;4.55;1.95;;;9.60;99.90;;;;;;5127925;27;20122;-67
2022/11/24 12:51:22;;;;;;;9.73;2.50;;;10.00;99.90;;;;;;5146616;27;20043;-67
2022/11/24 12:53:51;;;;;;;10.57;2.00;;;9.80;99.90;;;;;;5126909;27;20050;-67
2022/11/24 12:56:30;;;;;;;5.88;1.40;;;10.10;99.90;;;;;;5110642;27;20081;-67
2022/11/24 12:58:56;;;;;;;8.00;1.60;;;;;;;;;;5111446;27;20065;-67
2022/11/24 13:01:47;;;;;;;6.63;1.45;;;;;;;;;;5146902;27;20469;-67
2022/11/24 13:04:36;;;;;;;5.53;1.42;;;9.90;99.90;;;;;;5146602;27;20418;-67
2022/11/24 13:07:09;;;;;;;9.20;1.50;;;10.00;99.90;;;;;;5146675;27;20046;-67